Time;durP1;ratioP1;P1;durP2;ratioP2;P2;SDS_P1;SDS_P2;PMS_P1;PMS_P2;Temp;Humidity;BMP_temperature;BMP_pressure;BME280_temperature;BME280_humidity;BME280_pressure;Samples;Min_cycle;Max_cycle;Signal;HPM_P1;HPM_P2
2022/07/11 00:55:22;;;;;;;0.17;0.17;;;15.50;99.90;;;;;;6226457;22;20328;-83
2022/07/11 00:57:51;;;;;;;0.10;0.10;;;15.50;99.90;;;;;;6222560;22;20903;-83
2022/07/11 01:00:17;;;;;;;0.13;0.10;;;15.50;99.90;;;;;;6248188;22;20012;-83
2022/07/11 01:02:43;;;;;;;0.10;0.10;;;15.50;99.90;;;;;;6222861;22;20015;-83
2022/07/11 01:05:08;;;;;;;0.00;0.00;;;15.60;99.90;;;;;;6229449;22;20525;-82
2022/07/11 01:07:34;;;;;;;0.10;0.10;;;15.40;99.90;;;;;;6248551;22;20145;-83
2022/07/11 01:10:00;;;;;;;0.00;0.00;;;15.40;99.90;;;;;;6224560;22;20026;-81
2022/07/11 01:12:26;;;;;;;0.08;0.08;;;15.40;99.90;;;;;;6223591;22;20320;-81
2022/07/11 01:14:52;;;;;;;0.00;0.00;;;15.30;99.90;;;;;;6221713;22;20004;-81
2022/07/11 01:17:18;;;;;;;0.10;0.10;;;15.30;99.90;;;;;;6223157;22;20014;-81
2022/07/11 01:19:44;;;;;;;0.10;0.10;;;15.30;99.90;;;;;;6225492;23;20019;-81
2022/07/11 01:22:13;;;;;;;0.00;0.00;;;15.20;99.90;;;;;;6218723;23;20012;-81
2022/07/11 01:24:39;;;;;;;0.10;0.10;;;15.20;99.90;;;;;;6219194;23;20012;-81
2022/07/11 01:27:05;;;;;;;0.00;0.00;;;15.20;99.90;;;;;;6217355;23;20039;-80
2022/07/11 01:29:30;;;;;;;0.10;0.10;;;15.10;99.90;;;;;;6192213;23;20033;-79
2022/07/11 01:31:56;;;;;;;0.22;0.10;;;15.20;99.90;;;;;;6217604;23;20023;-81
2022/07/11 01:34:22;;;;;;;0.00;0.00;;;15.10;99.90;;;;;;6193238;23;20008;-80
2022/07/11 01:36:47;;;;;;;0.10;0.10;;;15.10;99.90;;;;;;6192996;23;20008;-81
2022/07/11 01:39:13;;;;;;;0.10;0.10;;;15.10;99.90;;;;;;6217918;23;20086;-81
2022/07/11 01:41:38;;;;;;;0.10;0.10;;;15.20;99.90;;;;;;6193084;23;20012;-81
2022/07/11 01:44:04;;;;;;;0.10;0.10;;;15.10;99.90;;;;;;6216735;23;20044;-81
2022/07/11 01:46:30;;;;;;;0.10;0.10;;;15.10;99.90;;;;;;6193626;23;20413;-81
2022/07/11 01:48:55;;;;;;;0.00;0.00;;;15.20;99.90;;;;;;6192883;23;20103;-81
2022/07/11 01:51:23;;;;;;;0.00;0.00;;;15.20;99.90;;;;;;6192563;23;20039;-81
2022/07/11 01:53:49;;;;;;;0.10;0.10;;;15.20;99.90;;;;;;6192114;23;20344;-81
2022/07/11 01:56:14;;;;;;;0.10;0.10;;;15.20;99.90;;;;;;6192244;23;20016;-82
2022/07/11 01:58:40;;;;;;;0.13;0.10;;;15.20;99.90;;;;;;6193066;23;20012;-82
2022/07/11 02:01:06;;;;;;;0.10;0.10;;;15.20;99.90;;;;;;6193018;23;20479;-81
2022/07/11 02:03:31;;;;;;;0.00;0.00;;;15.20;99.90;;;;;;6191951;23;20020;-81
2022/07/11 02:05:57;;;;;;;0.10;0.10;;;15.10;99.90;;;;;;6192177;23;20016;-81
2022/07/11 02:08:22;;;;;;;0.08;0.08;;;15.20;99.90;;;;;;6191920;23;20444;-82
2022/07/11 02:10:50;;;;;;;0.10;0.03;;;15.20;99.90;;;;;;6192503;23;20012;-81
2022/07/11 02:13:20;;;;;;;0.13;0.10;;;15.20;99.90;;;;;;6193829;23;20004;-82
2022/07/11 02:15:46;;;;;;;0.00;0.00;;;15.20;99.90;;;;;;6192782;23;20008;-82
2022/07/11 02:18:13;;;;;;;0.10;0.10;;;15.20;99.90;;;;;;6191896;22;20013;-82
2022/07/11 02:20:40;;;;;;;0.00;0.00;;;15.30;99.90;;;;;;6191823;23;20322;-81
2022/07/11 02:23:07;;;;;;;0.10;0.10;;;15.20;99.90;;;;;;6191159;23;20015;-82
2022/07/11 02:25:35;;;;;;;0.10;0.10;;;15.10;99.90;;;;;;6192466;23;20013;-81
2022/07/11 02:28:01;;;;;;;0.10;0.10;;;15.20;99.90;;;;;;6190349;22;20514;-81
2022/07/11 02:30:27;;;;;;;0.00;0.00;;;15.20;99.90;;;;;;6191485;23;20743;-82
2022/07/11 02:32:53;;;;;;;0.00;0.00;;;15.20;99.90;;;;;;6191896;23;20211;-81
2022/07/11 02:35:19;;;;;;;0.00;0.00;;;15.20;99.90;;;;;;6217383;23;20058;-81
2022/07/11 02:37:45;;;;;;;0.00;0.00;;;15.30;99.90;;;;;;6191764;23;20054;-82
2022/07/11 02:40:11;;;;;;;0.08;0.08;;;15.20;99.90;;;;;;6217764;23;20016;-81
2022/07/11 02:42:37;;;;;;;0.10;0.10;;;15.20;99.90;;;;;;6192468;23;20016;-81
2022/07/11 02:45:04;;;;;;;0.10;0.10;;;15.20;99.90;;;;;;6192330;23;20094;-82
2022/07/11 02:47:29;;;;;;;0.10;0.10;;;15.30;99.90;;;;;;6192161;23;20008;-82
2022/07/11 02:49:55;;;;;;;0.10;0.10;;;15.20;99.90;;;;;;6216628;23;20542;-81
2022/07/11 02:52:21;;;;;;;0.00;0.00;;;15.30;99.90;;;;;;6192077;23;20012;-81
2022/07/11 02:54:46;;;;;;;0.00;0.00;;;15.30;99.90;;;;;;6191415;23;20014;-82
2022/07/11 02:57:12;;;;;;;0.10;0.10;;;15.30;99.90;;;;;;6192757;23;20016;-81
2022/07/11 02:59:37;;;;;;;0.10;0.10;;;15.20;99.90;;;;;;6191762;23;20344;-82
2022/07/11 03:02:04;;;;;;;0.10;0.10;;;15.30;99.90;;;;;;6191677;23;20039;-81
2022/07/11 03:04:33;;;;;;;0.10;0.10;;;15.20;99.90;;;;;;6191240;23;20020;-81
2022/07/11 03:06:59;;;;;;;0.10;0.10;;;15.30;99.90;;;;;;6191569;23;20012;-82
2022/07/11 03:09:25;;;;;;;0.00;0.00;;;15.30;99.90;;;;;;6217107;23;20325;-81
2022/07/11 03:11:52;;;;;;;0.10;0.10;;;15.20;99.90;;;;;;6192550;23;20097;-81
2022/07/11 03:14:18;;;;;;;0.20;0.20;;;15.30;99.90;;;;;;6217474;23;20087;-81
2022/07/11 03:16:43;;;;;;;2.00;0.70;;;15.20;99.90;;;;;;6216812;23;20046;-81
2022/07/11 03:19:09;;;;;;;0.73;0.30;;;15.30;99.90;;;;;;6191121;23;20379;-81
2022/07/11 03:21:35;;;;;;;0.10;0.10;;;15.30;99.90;;;;;;6191565;23;20019;-82
2022/07/11 03:24:01;;;;;;;0.40;0.30;;;15.30;99.90;;;;;;6217560;23;20053;-81
2022/07/11 03:26:26;;;;;;;0.35;0.22;;;15.20;99.90;;;;;;6192222;23;20373;-82
2022/07/11 03:28:52;;;;;;;0.40;0.10;;;15.30;99.90;;;;;;6192267;23;20143;-81
2022/07/11 03:31:18;;;;;;;0.10;0.10;;;15.30;99.90;;;;;;6216735;23;20022;-82
2022/07/11 03:33:44;;;;;;;0.13;0.13;;;15.30;99.90;;;;;;6217023;23;20012;-82
2022/07/11 03:36:10;;;;;;;0.10;0.10;;;15.30;99.90;;;;;;6191021;23;20081;-82
2022/07/11 03:38:37;;;;;;;0.20;0.13;;;15.30;99.90;;;;;;6192154;23;20066;-81
2022/07/11 03:41:04;;;;;;;0.10;0.10;;;15.30;99.90;;;;;;6218628;23;20008;-81
2022/07/11 03:43:30;;;;;;;0.17;0.17;;;15.20;99.90;;;;;;6193606;23;20337;-81
2022/07/11 03:45:55;;;;;;;0.28;0.10;;;15.20;99.90;;;;;;6193929;23;20077;-81
2022/07/11 03:48:21;;;;;;;0.10;0.10;;;15.20;99.90;;;;;;6193006;23;20019;-81
2022/07/11 03:50:48;;;;;;;0.00;0.00;;;15.20;99.90;;;;;;6193753;23;20035;-82
2022/07/11 03:53:13;;;;;;;0.08;0.08;;;15.20;99.90;;;;;;6219257;23;20453;-81
2022/07/11 03:55:40;;;;;;;0.00;0.00;;;15.20;99.90;;;;;;6193546;23;20015;-82
2022/07/11 03:58:06;;;;;;;0.10;0.10;;;15.20;99.90;;;;;;6194083;22;20008;-81
2022/07/11 04:00:31;;;;;;;0.20;0.20;;;15.20;99.90;;;;;;6193331;23;20062;-82
2022/07/11 04:02:57;;;;;;;0.10;0.10;;;15.20;99.90;;;;;;6193336;23;20453;-81
2022/07/11 04:05:23;;;;;;;0.20;0.20;;;15.20;99.90;;;;;;6193756;23;20501;-81
2022/07/11 04:07:49;;;;;;;0.10;0.10;;;15.20;99.90;;;;;;6217710;23;20031;-83
2022/07/11 04:10:17;;;;;;;0.25;0.20;;;15.30;99.90;;;;;;6193907;23;20012;-81
2022/07/11 04:12:43;;;;;;;0.10;0.10;;;15.20;99.90;;;;;;6193254;23;20023;-81
2022/07/11 04:15:10;;;;;;;0.10;0.10;;;15.30;99.90;;;;;;6193305;23;20344;-81
2022/07/11 04:17:35;;;;;;;0.00;0.00;;;15.30;99.90;;;;;;6217677;23;20004;-82
2022/07/11 04:20:02;;;;;;;0.10;0.10;;;15.30;99.90;;;;;;6193498;23;20004;-81
2022/07/11 04:22:28;;;;;;;0.28;0.10;;;15.30;99.90;;;;;;6193582;23;20008;-81
2022/07/11 04:24:53;;;;;;;0.10;0.10;;;15.30;99.90;;;;;;6219233;23;20051;-82
2022/07/11 04:27:19;;;;;;;0.10;0.10;;;15.30;99.90;;;;;;6193817;23;20101;-81
2022/07/11 04:29:44;;;;;;;0.08;0.08;;;15.40;99.90;;;;;;6193328;23;20012;-81
2022/07/11 04:32:10;;;;;;;0.10;0.10;;;15.30;99.90;;;;;;6194077;23;20082;-82
2022/07/11 04:34:35;;;;;;;0.10;0.10;;;15.40;99.90;;;;;;6217050;23;20012;-82
2022/07/11 04:37:01;;;;;;;0.00;0.00;;;15.50;99.90;;;;;;6218608;23;20107;-82
2022/07/11 04:39:27;;;;;;;0.10;0.10;;;15.40;99.90;;;;;;6193673;23;20016;-81
2022/07/11 04:41:53;;;;;;;0.00;0.00;;;15.40;99.90;;;;;;6217906;23;20495;-82
2022/07/11 04:44:18;;;;;;;0.10;0.10;;;15.40;99.90;;;;;;6193332;23;20012;-82
2022/07/11 04:46:44;;;;;;;0.10;0.10;;;15.50;99.90;;;;;;6192419;23;20015;-82
2022/07/11 04:49:10;;;;;;;0.10;0.10;;;15.50;99.90;;;;;;6193535;23;20047;-82
2022/07/11 04:51:36;;;;;;;0.10;0.00;;;15.50;99.90;;;;;;6217298;23;20012;-82
2022/07/11 04:54:02;;;;;;;0.00;0.00;;;15.40;99.90;;;;;;6218902;23;20004;-82
2022/07/11 04:56:28;;;;;;;0.00;0.00;;;15.50;99.90;;;;;;6190517;23;20016;-83
2022/07/11 04:58:53;;;;;;;0.00;0.00;;;15.50;99.90;;;;;;6193044;23;20015;-83
2022/07/11 05:01:19;;;;;;;0.10;0.10;;;15.40;99.90;;;;;;6192207;23;20015;-83
2022/07/11 05:03:45;;;;;;;0.10;0.10;;;15.50;99.90;;;;;;6218734;23;20012;-82
2022/07/11 05:06:10;;;;;;;0.10;0.10;;;15.50;99.90;;;;;;6193747;23;20066;-82
2022/07/11 05:08:36;;;;;;;0.00;0.00;;;15.60;99.90;;;;;;6192009;23;20016;-83
2022/07/11 05:11:05;;;;;;;0.10;0.10;;;15.60;99.90;;;;;;6218348;23;20054;-82
2022/07/11 05:13:31;;;;;;;0.00;0.00;;;15.60;99.90;;;;;;6191840;23;20008;-84
2022/07/11 05:15:57;;;;;;;0.00;0.00;;;15.60;99.90;;;;;;6217987;23;20386;-82
2022/07/11 05:18:22;;;;;;;0.00;0.00;;;15.70;99.90;;;;;;6189501;23;20048;-84
2022/07/11 05:20:51;;;;;;;0.00;0.00;;;15.70;99.90;;;;;;6191270;23;20058;-81
2022/07/11 05:23:16;;;;;;;0.00;0.00;;;15.80;99.90;;;;;;6192741;23;20087;-83
2022/07/11 05:25:42;;;;;;;0.00;0.00;;;15.80;99.90;;;;;;6218034;23;20039;-82
2022/07/11 05:28:08;;;;;;;0.10;0.10;;;15.70;99.90;;;;;;6193269;22;20444;-83
2022/07/11 05:30:34;;;;;;;0.00;0.00;;;15.80;99.90;;;;;;6193100;23;20061;-81
2022/07/11 05:32:59;;;;;;;0.00;0.00;;;15.90;99.90;;;;;;6193110;23;20104;-82
2022/07/11 05:35:25;;;;;;;0.00;0.00;;;15.90;99.90;;;;;;6192307;23;20008;-82
2022/07/11 05:37:51;;;;;;;0.00;0.00;;;16.00;99.90;;;;;;6193453;23;20103;-82
2022/07/11 05:40:16;;;;;;;0.00;0.00;;;16.00;99.90;;;;;;6192922;23;20043;-82
2022/07/11 05:42:45;;;;;;;0.10;0.10;;;16.10;99.90;;;;;;6218970;23;20043;-82
2022/07/11 05:45:11;;;;;;;0.00;0.00;;;16.10;99.90;;;;;;6191534;23;20019;-81
2022/07/11 05:47:37;;;;;;;0.00;0.00;;;16.10;99.90;;;;;;6217756;23;20352;-81
2022/07/11 05:50:03;;;;;;;0.00;0.00;;;16.10;99.90;;;;;;6217123;23;20020;-82
2022/07/11 05:52:29;;;;;;;0.00;0.00;;;16.10;99.90;;;;;;6218176;23;20008;-82
2022/07/11 05:54:55;;;;;;;0.00;0.00;;;16.20;99.90;;;;;;6193428;23;20348;-82
2022/07/11 05:57:20;;;;;;;0.00;0.00;;;16.20;99.90;;;;;;6192523;23;20106;-82
2022/07/11 05:59:46;;;;;;;0.00;0.00;;;16.30;99.90;;;;;;6191531;23;20070;-84
2022/07/11 06:02:12;;;;;;;0.00;0.00;;;16.30;99.90;;;;;;6192552;23;20095;-83
2022/07/11 06:04:38;;;;;;;0.00;0.00;;;16.40;99.90;;;;;;6217283;23;20046;-82
2022/07/11 06:07:04;;;;;;;0.00;0.00;;;16.60;99.90;;;;;;6193123;23;20016;-82
2022/07/11 06:09:30;;;;;;;0.00;0.00;;;16.60;99.90;;;;;;6192005;23;20480;-84
2022/07/11 06:11:56;;;;;;;0.00;0.00;;;16.60;99.90;;;;;;6192082;23;20059;-83
2022/07/11 06:14:23;;;;;;;0.00;0.00;;;16.70;99.90;;;;;;6192566;23;20008;-83
2022/07/11 06:16:49;;;;;;;0.00;0.00;;;16.80;99.90;;;;;;6191808;23;20448;-84
2022/07/11 06:19:15;;;;;;;0.00;0.00;;;16.90;99.90;;;;;;6217262;23;20008;-84
2022/07/11 06:21:41;;;;;;;0.00;0.00;;;17.00;99.90;;;;;;6217246;23;20499;-84
2022/07/11 06:24:06;;;;;;;0.00;0.00;;;17.00;99.90;;;;;;6192093;23;20326;-82
2022/07/11 06:26:32;;;;;;;0.00;0.00;;;17.10;99.90;;;;;;6216780;23;20098;-82
2022/07/11 06:28:58;;;;;;;0.00;0.00;;;17.20;99.90;;;;;;6192558;23;20093;-83
2022/07/11 06:31:23;;;;;;;0.00;0.00;;;17.20;99.90;;;;;;6191194;23;20012;-83
2022/07/11 06:33:54;;;;;;;0.00;0.00;;;17.00;99.90;;;;;;6190707;23;20012;-83
2022/07/11 06:36:26;;;;;;;0.00;0.00;;;17.10;99.90;;;;;;6215742;23;20424;-83
2022/07/11 06:38:53;;;;;;;0.00;0.00;;;17.10;99.90;;;;;;6190125;23;20019;-83
2022/07/11 06:41:19;;;;;;;0.00;0.00;;;17.20;99.90;;;;;;6190852;23;20325;-83
2022/07/11 06:43:47;;;;;;;0.00;0.00;;;17.20;99.90;;;;;;6190755;23;20095;-83
2022/07/11 06:46:14;;;;;;;0.00;0.00;;;17.20;99.90;;;;;;6192068;23;20448;-82
2022/07/11 06:48:40;;;;;;;0.00;0.00;;;17.20;99.90;;;;;;6192410;23;20332;-82
2022/07/11 06:51:06;;;;;;;0.00;0.00;;;17.30;99.90;;;;;;6192646;23;20018;-83
2022/07/11 06:53:31;;;;;;;0.00;0.00;;;17.30;99.90;;;;;;6217823;23;20047;-83
2022/07/11 06:55:57;;;;;;;0.00;0.00;;;17.40;99.90;;;;;;6193116;23;20008;-82
2022/07/11 06:58:31;;;;;;;0.00;0.00;;;17.40;99.90;;;;;;6192504;23;20015;-82
2022/07/11 07:01:01;;;;;;;0.00;0.00;;;17.40;99.90;;;;;;6192803;23;20008;-82
2022/07/11 07:03:28;;;;;;;0.00;0.00;;;17.40;99.90;;;;;;6192667;23;20008;-83
2022/07/11 07:05:55;;;;;;;0.00;0.00;;;17.40;99.90;;;;;;6192553;23;20019;-84
2022/07/11 07:08:23;;;;;;;0.00;0.00;;;17.40;99.90;;;;;;6193161;23;20043;-83
2022/07/11 07:10:49;;;;;;;0.00;0.00;;;17.40;99.90;;;;;;6217926;23;20034;-83
2022/07/11 07:13:14;;;;;;;0.00;0.00;;;17.60;99.90;;;;;;6218175;23;20456;-83
2022/07/11 07:15:40;;;;;;;0.00;0.00;;;17.60;99.90;;;;;;6192479;23;20019;-83
2022/07/11 07:18:06;;;;;;;0.00;0.00;;;17.70;99.90;;;;;;6192414;22;20399;-83
2022/07/11 07:20:31;;;;;;;0.00;0.00;;;17.80;99.90;;;;;;6192750;23;20012;-82
2022/07/11 07:22:57;;;;;;;0.00;0.00;;;17.90;99.90;;;;;;6192625;23;20453;-83
2022/07/11 07:25:23;;;;;;;0.00;0.00;;;17.90;99.90;;;;;;6192985;23;20016;-82
2022/07/11 07:27:48;;;;;;;0.00;0.00;;;17.90;99.90;;;;;;6192619;23;20345;-82
2022/07/11 07:30:14;;;;;;;0.00;0.00;;;17.90;99.90;;;;;;6192892;23;20012;-82
2022/07/11 07:32:40;;;;;;;0.00;0.00;;;17.90;99.90;;;;;;6192442;23;20016;-82
2022/07/11 07:35:06;;;;;;;0.00;0.00;;;17.80;99.90;;;;;;6192651;23;20012;-82
2022/07/11 07:37:32;;;;;;;0.00;0.00;;;17.90;99.90;;;;;;6192549;23;20012;-84
2022/07/11 07:39:57;;;;;;;0.00;0.00;;;17.80;99.90;;;;;;6192265;23;20005;-83
2022/07/11 07:42:23;;;;;;;0.00;0.00;;;17.80;99.90;;;;;;6192687;23;20101;-83
2022/07/11 07:44:49;;;;;;;0.00;0.00;;;17.80;99.90;;;;;;6192631;23;20016;-83
2022/07/11 07:47:15;;;;;;;0.00;0.00;;;17.90;99.90;;;;;;6193073;23;20318;-83
2022/07/11 07:49:40;;;;;;;0.00;0.00;;;17.80;99.90;;;;;;6193017;23;20074;-83
2022/07/11 07:52:06;;;;;;;0.00;0.00;;;17.90;99.90;;;;;;6193002;23;20008;-83
2022/07/11 07:54:31;;;;;;;0.00;0.00;;;18.00;99.90;;;;;;6192970;23;20004;-82
2022/07/11 07:56:57;;;;;;;0.00;0.00;;;18.10;99.90;;;;;;6218553;23;20050;-82
2022/07/11 07:59:24;;;;;;;0.00;0.00;;;18.20;99.90;;;;;;6217767;23;20012;-82
2022/07/11 08:01:51;;;;;;;0.00;0.00;;;18.20;99.90;;;;;;6192875;23;20012;-82
2022/07/11 08:04:17;;;;;;;0.00;0.00;;;18.30;99.90;;;;;;6193019;23;20016;-82
2022/07/11 08:06:42;;;;;;;0.00;0.00;;;18.30;99.90;;;;;;6217658;23;20058;-82
2022/07/11 08:09:08;;;;;;;0.00;0.00;;;18.50;99.90;;;;;;6192205;23;20043;-82
2022/07/11 08:11:34;;;;;;;0.00;0.00;;;18.60;99.90;;;;;;6218305;23;20031;-82
2022/07/11 08:14:02;;;;;;;0.00;0.00;;;18.80;99.90;;;;;;6193003;23;20008;-82
2022/07/11 08:16:29;;;;;;;0.00;0.00;;;18.90;99.90;;;;;;6192864;23;20015;-82
2022/07/11 08:18:55;;;;;;;0.00;0.00;;;19.00;99.90;;;;;;6192660;23;20016;-82
2022/07/11 08:21:21;;;;;;;0.00;0.00;;;19.00;99.90;;;;;;6193347;23;20012;-83
2022/07/11 08:23:47;;;;;;;0.00;0.00;;;18.90;99.90;;;;;;6192910;23;20012;-82
2022/07/11 08:26:13;;;;;;;0.00;0.00;;;18.90;99.90;;;;;;6193079;23;20062;-82
2022/07/11 08:28:39;;;;;;;0.10;0.00;;;18.90;99.90;;;;;;6196643;23;20012;-82
2022/07/11 08:31:04;;;;;;;0.00;0.00;;;18.90;99.90;;;;;;6199902;23;20023;-82
2022/07/11 08:33:30;;;;;;;0.00;0.00;;;19.00;99.90;;;;;;6199519;23;20019;-81
2022/07/11 08:35:56;;;;;;;0.00;0.00;;;19.20;99.90;;;;;;6223570;23;20082;-81
2022/07/11 08:38:22;;;;;;;0.00;0.00;;;19.30;99.90;;;;;;6204854;23;20038;-81
2022/07/11 08:40:51;;;;;;;0.00;0.00;;;19.40;99.90;;;;;;6208625;23;20032;-82
2022/07/11 08:43:23;;;;;;;0.00;0.00;;;19.60;99.90;;;;;;6231050;23;20008;-81
2022/07/11 08:45:50;;;;;;;0.00;0.00;;;20.00;99.90;;;;;;6230188;23;20008;-81
2022/07/11 08:48:16;;;;;;;0.00;0.00;;;20.30;99.90;;;;;;6201564;22;20008;-82
2022/07/11 08:50:42;;;;;;;0.00;0.00;;;20.30;99.90;;;;;;6200443;23;20382;-82
2022/07/11 08:53:09;;;;;;;0.00;0.00;;;20.10;99.90;;;;;;6207459;23;20043;-82
2022/07/11 08:55:35;;;;;;;0.00;0.00;;;19.90;99.90;;;;;;6205670;23;20011;-82
2022/07/11 08:58:02;;;;;;;0.00;0.00;;;19.50;99.90;;;;;;6233020;22;20011;-81
2022/07/11 09:00:27;;;;;;;0.00;0.00;;;19.40;99.90;;;;;;6206040;23;20465;-82
2022/07/11 09:02:53;;;;;;;0.00;0.00;;;19.30;99.90;;;;;;6204036;23;20012;-81
2022/07/11 09:05:19;;;;;;;0.00;0.00;;;19.20;99.90;;;;;;6222069;23;20016;-82
2022/07/11 09:07:49;;;;;;;0.00;0.00;;;19.10;99.90;;;;;;6198189;23;20008;-81
2022/07/11 09:10:18;;;;;;;0.00;0.00;;;19.10;99.90;;;;;;6231266;23;20008;-82
2022/07/11 09:13:00;;;;;;;0.00;0.00;;;19.10;99.90;;;;;;6235739;23;20008;-82
2022/07/11 09:15:41;;;;;;;0.00;0.00;;;19.20;99.90;;;;;;6215443;23;20012;-82
2022/07/11 09:18:31;;;;;;;0.00;0.00;;;19.30;99.90;;;;;;6210952;22;20019;-82
2022/07/11 09:26:46;;;;;;;0.00;0.00;;;20.40;99.90;;;;;;6218908;23;20016;-82
2022/07/11 09:29:20;;;;;;;0.00;0.00;;;20.80;99.90;;;;;;6193591;23;20004;-82
2022/07/11 09:31:47;;;;;;;0.00;0.00;;;20.90;99.90;;;;;;6193894;23;20012;-82
2022/07/11 09:34:18;;;;;;;0.00;0.00;;;20.90;99.90;;;;;;6196014;23;20008;-82
2022/07/11 09:36:51;;;;;;;0.00;0.00;;;20.90;99.90;;;;;;6193618;23;20015;-82
2022/07/11 09:39:17;;;;;;;;;;;20.80;99.90;;;;;;6193689;23;20083;-81
2022/07/11 09:41:43;;;;;;;0.00;0.00;;;20.80;99.90;;;;;;6193462;23;19953;-81
2022/07/11 09:44:27;;;;;;;0.00;0.00;;;20.80;99.90;;;;;;6194084;23;20054;-81
2022/07/11 09:46:53;;;;;;;0.00;0.00;;;20.90;99.90;;;;;;6219048;23;20012;-81
2022/07/11 09:49:34;;;;;;;0.00;0.00;;;20.90;99.90;;;;;;6193305;23;20046;-82
2022/07/11 09:52:18;;;;;;;0.00;0.00;;;21.00;99.90;;;;;;6193502;23;20016;-82
2022/07/11 09:54:57;;;;;;;0.00;0.00;;;21.10;99.90;;;;;;6218497;23;20464;-82
2022/07/11 09:57:37;;;;;;;0.00;0.00;;;21.30;99.90;;;;;;6193594;23;20035;-82
2022/07/11 10:00:04;;;;;;;0.00;0.00;;;21.80;99.90;;;;;;6193409;23;20325;-82
2022/07/11 10:02:30;;;;;;;0.00;0.00;;;22.60;99.90;;;;;;6218543;23;20012;-81
2022/07/11 10:04:58;;;;;;;0.00;0.00;;;23.00;99.90;;;;;;6193245;23;20536;-81
2022/07/11 10:07:24;;;;;;;0.00;0.00;;;23.10;99.90;;;;;;6193199;23;20043;-81
2022/07/11 10:09:50;;;;;;;0.00;0.00;;;22.90;99.90;;;;;;6217743;23;20016;-82
2022/07/11 10:12:16;;;;;;;0.00;0.00;;;22.50;99.90;;;;;;6193167;23;20016;-82
2022/07/11 10:14:43;;;;;;;0.00;0.00;;;22.30;99.90;;;;;;6218208;23;20444;-82
2022/07/11 10:17:36;;;;;;;0.00;0.00;;;22.00;99.90;;;;;;6193322;23;20004;-82
2022/07/11 10:20:16;;;;;;;0.00;0.00;;;21.70;99.90;;;;;;6192863;23;20083;-82
2022/07/11 10:22:53;;;;;;;0.00;0.00;;;21.40;99.90;;;;;;6193154;23;20012;-82
2022/07/11 10:25:35;;;;;;;0.00;0.00;;;21.30;99.90;;;;;;6218203;23;20008;-81
2022/07/11 10:28:10;;;;;;;0.00;0.00;;;21.40;99.90;;;;;;6192857;22;20012;-81
2022/07/11 10:30:47;;;;;;;0.00;0.00;;;21.50;99.90;;;;;;6193293;23;20452;-81
2022/07/11 10:33:14;;;;;;;0.00;0.00;;;21.70;99.90;;;;;;6218240;23;20341;-81
2022/07/11 10:35:42;;;;;;;0.00;0.00;;;21.80;99.90;;;;;;6218205;23;20399;-81
2022/07/11 10:38:07;;;;;;;0.00;0.00;;;21.80;99.90;;;;;;6217764;22;20008;-81
2022/07/11 10:40:50;;;;;;;0.00;0.00;;;21.70;99.90;;;;;;6193587;23;20090;-81
2022/07/11 10:43:33;;;;;;;0.00;0.00;;;21.70;99.90;;;;;;6193160;23;20094;-81
2022/07/11 10:45:58;;;;;;;0.10;0.10;;;21.70;99.90;;;;;;6193022;23;20055;-81
2022/07/11 10:48:25;;;;;;;0.00;0.00;;;21.60;99.90;;;;;;6192946;23;20016;-81
2022/07/11 10:51:00;;;;;;;0.00;0.00;;;21.70;99.90;;;;;;6192638;23;20057;-81
2022/07/11 10:53:32;;;;;;;0.00;0.00;;;21.70;99.90;;;;;;6192964;23;20016;-82
2022/07/11 10:56:20;;;;;;;0.00;0.00;;;21.80;99.90;;;;;;6192808;23;20012;-82
2022/07/11 10:59:15;;;;;;;0.00;0.00;;;22.00;99.90;;;;;;6192390;23;20012;-81
2022/07/11 11:02:03;;;;;;;0.00;0.00;;;22.10;99.90;;;;;;6192176;23;20016;-81
2022/07/11 11:05:00;;;;;;;0.00;0.00;;;22.10;99.90;;;;;;6193594;23;20015;-81
2022/07/11 11:07:41;;;;;;;0.00;0.00;;;22.00;99.90;;;;;;6217854;23;20046;-81
2022/07/11 11:10:29;;;;;;;0.00;0.00;;;22.00;99.90;;;;;;6193970;23;20008;-81
2022/07/11 11:13:04;;;;;;;0.00;0.00;;;22.00;99.90;;;;;;6193504;23;20016;-81
2022/07/11 11:15:45;;;;;;;0.00;0.00;;;21.90;99.90;;;;;;6194502;23;20020;-81
2022/07/11 11:18:23;;;;;;;0.00;0.00;;;21.90;99.90;;;;;;6218694;22;20016;-81
2022/07/11 11:21:00;;;;;;;0.00;0.00;;;21.90;99.90;;;;;;6219102;23;20008;-82
2022/07/11 11:23:30;;;;;;;0.00;0.00;;;21.90;99.90;;;;;;6192987;23;20012;-81
2022/07/11 11:26:13;;;;;;;0.00;0.00;;;22.00;99.90;;;;;;6193318;23;20091;-81
2022/07/11 11:28:58;;;;;;;0.00;0.00;;;22.10;99.90;;;;;;6217910;23;20008;-81
2022/07/11 11:31:25;;;;;;;0.00;0.00;;;22.20;99.90;;;;;;6218256;23;20016;-81
2022/07/11 11:33:50;;;;;;;0.00;0.00;;;22.30;99.90;;;;;;6193005;23;20071;-82
2022/07/11 11:36:19;;;;;;;0.00;0.00;;;22.40;99.90;;;;;;6192949;23;20004;-81
2022/07/11 11:38:48;;;;;;;0.00;0.00;;;22.50;99.90;;;;;;6193338;23;20445;-82
2022/07/11 11:41:30;;;;;;;0.00;0.00;;;22.60;99.90;;;;;;6193058;23;20013;-81
2022/07/11 11:43:58;;;;;;;0.10;0.10;;;22.50;99.90;;;;;;6194707;23;20008;-81
2022/07/11 11:46:27;;;;;;;0.00;0.00;;;22.40;99.90;;;;;;6217948;23;20009;-81
2022/07/11 11:48:58;;;;;;;0.00;0.00;;;22.30;99.90;;;;;;6193530;23;20012;-81
2022/07/11 11:51:26;;;;;;;0.00;0.00;;;22.10;99.90;;;;;;6193223;23;20449;-81
2022/07/11 11:53:54;;;;;;;0.00;0.00;;;21.90;99.90;;;;;;6192724;23;20051;-81
2022/07/11 11:56:23;;;;;;;0.00;0.00;;;21.80;99.90;;;;;;6217743;23;20063;-81
2022/07/11 11:58:51;;;;;;;0.00;0.00;;;21.80;99.90;;;;;;6217299;23;20008;-81
2022/07/11 12:01:24;;;;;;;0.00;0.00;;;21.90;99.90;;;;;;6193020;23;20004;-81
2022/07/11 12:03:54;;;;;;;0.00;0.00;;;22.10;99.90;;;;;;6219600;23;20472;-81
2022/07/11 12:06:24;;;;;;;0.00;0.00;;;22.30;99.90;;;;;;6194269;23;20015;-81
2022/07/11 12:08:50;;;;;;;0.00;0.00;;;22.50;99.90;;;;;;6193910;23;20019;-81
2022/07/11 12:11:17;;;;;;;0.08;0.08;;;22.60;99.90;;;;;;6194183;23;20058;-81
2022/07/11 12:13:43;;;;;;;0.00;0.00;;;22.70;99.90;;;;;;6194285;23;20535;-81
2022/07/11 12:18:59;;;;;;;0.00;0.00;;;22.80;99.90;;;;;;6220112;23;20015;-81
2022/07/11 12:21:25;;;;;;;0.00;0.00;;;22.90;99.90;;;;;;6194879;23;20023;-82
2022/07/11 12:23:51;;;;;;;0.00;0.00;;;23.00;99.90;;;;;;6194275;23;20008;-81
2022/07/11 12:26:17;;;;;;;0.00;0.00;;;23.20;99.90;;;;;;6219221;23;20018;-82
2022/07/11 12:29:16;;;;;;;0.00;0.00;;;23.60;99.90;;;;;;6194200;23;20418;-81
2022/07/11 12:31:45;;;;;;;0.00;0.00;;;23.80;99.90;;;;;;6194627;23;20023;-81
2022/07/11 12:34:11;;;;;;;0.00;0.00;;;23.70;99.90;;;;;;6219820;23;20479;-81
2022/07/11 12:36:36;;;;;;;0.00;0.00;;;23.60;99.90;;;;;;6194509;23;20005;-82
2022/07/11 12:39:04;;;;;;;0.00;0.00;;;23.70;99.90;;;;;;6193702;23;20014;-81
2022/07/11 12:41:30;;;;;;;0.00;0.00;;;23.80;99.90;;;;;;6194521;23;20008;-81
2022/07/11 12:46:41;;;;;;;0.00;0.00;;;23.90;99.90;;;;;;6219475;23;20020;-81
2022/07/11 12:49:09;;;;;;;0.00;0.00;;;23.80;99.90;;;;;;6193460;23;20008;-82
2022/07/11 12:51:40;;;;;;;0.00;0.00;;;23.60;99.90;;;;;;6218950;23;20008;-81
2022/07/11 12:54:11;;;;;;;0.00;0.00;;;23.40;99.90;;;;;;6193985;23;20039;-81
2022/07/11 12:56:37;;;;;;;0.00;0.00;;;23.30;99.90;;;;;;6193960;23;20004;-81
2022/07/11 12:59:04;;;;;;;0.03;0.03;;;23.20;99.90;;;;;;6218652;23;20448;-81
2022/07/11 13:01:31;;;;;;;0.00;0.00;;;23.20;99.90;;;;;;6218986;23;20018;-81
2022/07/11 13:03:57;;;;;;;0.00;0.00;;;23.10;99.90;;;;;;6194026;23;20019;-81
2022/07/11 13:09:08;;;;;;;0.00;0.00;;;22.80;99.90;;;;;;6219590;23;20115;-82
2022/07/11 13:11:34;;;;;;;0.00;0.00;;;22.70;99.90;;;;;;6195354;23;20016;-82
2022/07/11 13:14:00;;;;;;;0.10;0.00;;;22.60;99.90;;;;;;6193744;23;20336;-82
2022/07/11 13:16:26;;;;;;;0.00;0.00;;;22.50;99.90;;;;;;6194210;23;20093;-82
2022/07/11 13:18:52;;;;;;;0.00;0.00;;;22.40;99.90;;;;;;6193587;23;20087;-82
2022/07/11 13:21:18;;;;;;;0.00;0.00;;;22.30;99.90;;;;;;6193857;23;20044;-81
2022/07/11 13:23:44;;;;;;;0.00;0.00;;;22.40;99.90;;;;;;6194600;23;20344;-81
2022/07/11 13:26:10;;;;;;;0.10;0.10;;;22.50;99.90;;;;;;6194354;23;20065;-81
2022/07/11 13:28:36;;;;;;;0.00;0.00;;;22.60;99.90;;;;;;6218782;23;20019;-82
2022/07/11 13:31:04;;;;;;;0.00;0.00;;;22.70;99.90;;;;;;6194578;23;20313;-82
2022/07/11 13:33:31;;;;;;;0.00;0.00;;;22.80;99.90;;;;;;6220374;23;20020;-82
2022/07/11 13:35:56;;;;;;;0.00;0.00;;;22.80;99.90;;;;;;6194097;23;20039;-82
2022/07/11 13:38:22;;;;;;;0.00;0.00;;;22.80;99.90;;;;;;6194499;23;20339;-82
2022/07/11 13:40:48;;;;;;;0.00;0.00;;;22.80;99.90;;;;;;6219628;23;20008;-82
2022/07/11 13:43:14;;;;;;;0.00;0.00;;;22.90;99.90;;;;;;6194010;23;20437;-82
2022/07/11 13:45:41;;;;;;;0.00;0.00;;;22.90;99.90;;;;;;6194143;23;20008;-81
2022/07/11 13:48:07;;;;;;;0.00;0.00;;;22.90;99.90;;;;;;6194635;22;20018;-81
2022/07/11 13:50:33;;;;;;;0.00;0.00;;;22.90;99.90;;;;;;6221316;23;20082;-82
2022/07/11 13:52:59;;;;;;;0.00;0.00;;;23.00;99.90;;;;;;6194811;23;20085;-82
2022/07/11 13:55:31;;;;;;;0.00;0.00;;;23.00;99.90;;;;;;6194390;23;20012;-82
2022/07/11 13:57:58;;;;;;;0.00;0.00;;;23.20;99.90;;;;;;6193006;22;20012;-81
2022/07/11 14:00:24;;;;;;;0.00;0.00;;;23.30;99.90;;;;;;6194024;23;20472;-81